Time;durP1;ratioP1;P1;durP2;ratioP2;P2;SDS_P1;SDS_P2;PMS_P1;PMS_P2;Temp;Humidity;BMP_temperature;BMP_pressure;BME280_temperature;BME280_humidity;BME280_pressure;Samples;Min_cycle;Max_cycle;Signal;HPM_P1;HPM_P2
2023/03/26 00:01:39;;;;;;;16.33;14.47;;;;;;;12.87;100.00;98764.44;5114770;28;20196;-76
2023/03/26 00:04:07;;;;;;;15.37;13.80;;;;;;;12.52;100.00;98770.72;5114843;28;20203;-75
2023/03/26 00:06:37;;;;;;;15.10;13.67;;;;;;;12.30;100.00;98767.75;5114874;28;20186;-74
2023/03/26 00:09:06;;;;;;;15.17;13.80;;;;;;;12.05;100.00;98740.38;5114821;28;20629;-72
2023/03/26 00:11:34;;;;;;;15.15;13.60;;;;;;;12.11;100.00;98771.47;5114844;28;20201;-73
2023/03/26 00:14:01;;;;;;;15.43;13.87;;;;;;;12.04;100.00;98772.59;5114674;28;20410;-76
2023/03/26 00:16:31;;;;;;;15.13;13.83;;;;;;;12.02;100.00;98770.13;5113024;28;20670;-75
2023/03/26 00:19:00;;;;;;;15.83;14.27;;;;;;;12.04;100.00;98768.06;5113608;28;20198;-74
2023/03/26 00:21:29;;;;;;;15.73;14.13;;;;;;;11.91;100.00;98765.53;5114239;28;20222;-74
2023/03/26 00:23:57;;;;;;;15.17;13.70;;;;;;;11.97;100.00;98761.97;5114092;28;20233;-74
2023/03/26 00:26:24;;;;;;;17.27;15.53;;;;;;;12.00;100.00;98763.41;5114239;28;20723;-75
2023/03/26 00:28:50;;;;;;;18.40;15.13;;;;;;;12.15;100.00;98755.84;5114273;28;20266;-76
2023/03/26 00:31:18;;;;;;;17.03;15.23;;;;;;;12.20;100.00;98754.13;5113988;28;20626;-75
2023/03/26 00:33:46;;;;;;;18.07;15.43;;;;;;;12.25;100.00;98748.94;5113846;28;20218;-73
2023/03/26 00:36:16;;;;;;;16.87;15.30;;;;;;;12.33;100.00;98750.50;5114301;28;20199;-74
2023/03/26 00:38:43;;;;;;;18.60;16.67;;;;;;;12.29;100.00;98733.34;5113847;28;20205;-74
2023/03/26 00:41:21;;;;;;;17.03;15.33;;;;;;;12.32;100.00;98733.69;5114263;28;20190;-74
2023/03/26 00:43:48;;;;;;;17.90;16.00;;;;;;;12.37;100.00;98741.81;5114031;28;20193;-76
2023/03/26 00:46:16;;;;;;;18.67;15.97;;;;;;;12.44;100.00;98731.06;5112729;28;20250;-74
2023/03/26 00:48:42;;;;;;;18.17;16.37;;;;;;;12.51;100.00;98731.81;5109383;28;20201;-74
2023/03/26 00:51:14;;;;;;;17.30;15.60;;;;;;;12.60;100.00;98725.94;5114017;28;20193;-74
2023/03/26 00:53:41;;;;;;;17.43;15.77;;;;;;;12.74;100.00;98732.69;5113891;28;20270;-74
2023/03/26 00:56:09;;;;;;;18.50;16.33;;;;;;;12.89;100.00;98732.25;5112817;28;20193;-74
2023/03/26 00:58:36;;;;;;;18.30;16.20;;;;;;;13.01;100.00;98733.94;5113741;28;20555;-74
2023/03/26 01:01:06;;;;;;;16.30;14.87;;;;;;;13.01;100.00;98749.94;5113502;28;20193;-74
2023/03/26 01:03:35;;;;;;;16.97;15.47;;;;;;;13.05;100.00;98750.28;5113328;28;20266;-74
2023/03/26 01:06:06;;;;;;;16.80;15.13;;;;;;;13.02;100.00;98751.53;5113360;28;20194;-74
2023/03/26 01:08:38;;;;;;;15.50;14.10;;;;;;;13.03;100.00;98745.16;5113799;28;20182;-74
2023/03/26 01:11:12;;;;;;;16.00;14.60;;;;;;;13.11;100.00;98747.50;5113228;28;20236;-73
2023/03/26 01:13:42;;;;;;;15.10;13.80;;;;;;;13.08;100.00;98747.97;5113512;28;20216;-73
2023/03/26 01:16:19;;;;;;;15.87;14.47;;;;;;;13.19;100.00;98773.81;5113176;28;20198;-74
2023/03/26 01:18:47;;;;;;;14.20;12.83;;;;;;;13.26;100.00;98779.88;5112553;28;20186;-74
2023/03/26 01:21:21;;;;;;;13.67;12.47;;;;;;;13.34;100.00;98776.88;5113396;28;20248;-75
2023/03/26 01:23:59;;;;;;;13.07;11.80;;;;;;;13.51;99.75;98783.13;5113073;28;20197;-74
2023/03/26 01:26:47;;;;;;;14.23;12.87;;;;;;;13.44;98.70;98773.63;5113159;28;20312;-74
2023/03/26 01:29:21;;;;;;;12.73;11.67;;;;;;;13.42;97.73;98768.53;5113259;28;20198;-74
2023/03/26 01:31:57;;;;;;;13.40;12.27;;;;;;;13.43;97.41;98774.69;5113273;28;20190;-75
2023/03/26 01:34:32;;;;;;;12.93;11.67;;;;;;;13.50;97.28;98781.50;5113133;28;20248;-75
2023/03/26 01:37:12;;;;;;;14.03;11.43;;;;;;;13.48;96.25;98762.25;5112846;28;20182;-75
2023/03/26 01:39:48;;;;;;;11.93;10.97;;;;;;;13.45;95.19;98788.59;5112777;28;20186;-75
2023/03/26 01:42:24;;;;;;;12.30;11.37;;;;;;;13.40;95.27;98797.28;5112586;28;20191;-74
2023/03/26 01:44:57;;;;;;;10.87;10.07;;;;;;;13.46;93.79;98798.19;5112640;28;20239;-74
2023/03/26 01:47:25;;;;;;;12.23;9.93;;;;;;;13.45;93.27;98799.25;5110472;28;20191;-74
2023/03/26 01:49:51;;;;;;;10.10;9.37;;;;;;;13.48;91.80;98804.94;5112444;28;20198;-75
2023/03/26 01:52:21;;;;;;;10.07;9.27;;;;;;;13.54;91.40;98804.03;5112812;28;20194;-75
2023/03/26 01:54:49;;;;;;;11.27;9.87;;;;;;;13.54;91.28;98804.03;5112789;28;20208;-75
2023/03/26 01:57:24;;;;;;;9.83;9.13;;;;;;;13.45;91.56;98805.41;5112362;28;20270;-75
2023/03/26 02:00:10;;;;;;;9.03;8.43;;;;;;;13.51;91.04;98804.47;5112735;28;20185;-76
2023/03/26 02:02:47;;;;;;;8.03;7.50;;;;;;;13.41;89.55;98808.75;5113015;28;20571;-76
2023/03/26 02:05:20;;;;;;;7.23;6.70;;;;;;;13.55;86.47;98816.31;5112642;28;20186;-76
2023/03/26 02:07:52;;;;;;;6.47;5.63;;;;;;;13.57;85.87;98806.22;5111285;28;20191;-75
2023/03/26 02:10:26;;;;;;;6.17;5.67;;;;;;;13.60;84.42;98813.75;5097237;28;20221;-76
2023/03/26 02:12:54;;;;;;;5.40;4.90;;;;;;;13.63;83.46;98807.97;5091854;28;20207;-76
2023/03/26 02:15:21;;;;;;;5.63;5.23;;;;;;;13.67;83.87;98803.78;5092066;28;20191;-76
2023/03/26 02:17:48;;;;;;;5.90;5.30;;;;;;;13.68;84.58;98809.94;5091985;28;20252;-76
2023/03/26 02:20:17;;;;;;;5.97;5.57;;;;;;;13.70;84.82;98811.34;5091971;28;20191;-76
2023/03/26 02:22:46;;;;;;;6.07;5.57;;;;;;;13.77;84.83;98813.88;5092482;28;20198;-77
2023/03/26 02:25:15;;;;;;;5.80;5.40;;;;;;;13.83;83.31;98811.09;5097745;28;20251;-75
2023/03/26 02:27:44;;;;;;;5.20;4.90;;;;;;;13.68;83.02;98794.72;5112651;28;20269;-73
2023/03/26 02:30:14;;;;;;;6.43;4.60;;;;;;;13.84;81.90;98822.59;5111623;28;20217;-74
2023/03/26 02:32:42;;;;;;;4.40;4.10;;;;;;;13.79;80.94;98823.28;5112190;28;20218;-74
2023/03/26 02:35:10;;;;;;;4.70;4.30;;;;;;;13.83;79.98;98819.09;5111970;28;20716;-73
2023/03/26 02:37:37;;;;;;;4.10;3.90;;;;;;;13.92;79.06;98832.88;5112476;28;20284;-73
2023/03/26 02:40:09;;;;;;;3.80;3.60;;;;;;;13.89;78.89;98828.03;5111356;28;20218;-73
2023/03/26 02:42:36;;;;;;;3.17;3.03;;;;;;;13.90;77.74;98838.50;5111964;28;20619;-72
2023/03/26 02:45:04;;;;;;;3.17;3.07;;;;;;;14.00;76.79;98833.38;5112247;28;20190;-74
2023/03/26 02:47:32;;;;;;;2.93;2.80;;;;;;;13.95;75.92;98849.28;5111407;28;20633;-73
2023/03/26 02:50:00;;;;;;;2.90;2.70;;;;;;;13.99;75.07;98841.59;5111892;28;20198;-73
2023/03/26 02:52:27;;;;;;;2.73;2.50;;;;;;;14.00;74.36;98851.22;5111854;28;20608;-73
2023/03/26 02:54:54;;;;;;;2.60;2.50;;;;;;;14.01;74.20;98851.00;5112037;28;20187;-73
2023/03/26 02:57:20;;;;;;;2.20;2.00;;;;;;;13.94;73.94;98858.34;5111884;28;20237;-74
2023/03/26 02:59:49;;;;;;;2.53;1.97;;;;;;;13.91;74.36;98861.47;5112067;28;20248;-74
2023/03/26 03:02:18;;;;;;;2.20;2.10;;;;;;;13.87;73.58;98868.31;5111815;28;20543;-74
2023/03/26 03:04:44;;;;;;;2.37;2.27;;;;;;;13.87;74.09;98867.50;5112009;28;20195;-74
2023/03/26 03:07:13;;;;;;;2.40;2.20;;;;;;;13.84;73.79;98871.44;5111250;28;20697;-75
2023/03/26 03:09:40;;;;;;;2.53;2.30;;;;;;;13.91;73.55;98872.16;5111592;28;20191;-75
2023/03/26 03:12:07;;;;;;;2.07;1.97;;;;;;;13.88;73.15;98872.59;5112021;28;20199;-74
2023/03/26 03:14:34;;;;;;;2.70;2.50;;;;;;;13.78;72.69;98875.06;5111957;28;20222;-74
2023/03/26 03:17:00;;;;;;;1.97;1.87;;;;;;;13.77;72.68;98873.41;5111445;28;20194;-74
2023/03/26 03:19:28;;;;;;;2.30;2.20;;;;;;;13.76;71.64;98882.47;5112691;28;20259;-74
2023/03/26 03:21:55;;;;;;;2.07;1.80;;;;;;;13.82;71.56;98876.22;5116031;28;20195;-74
2023/03/26 03:24:22;;;;;;;2.10;2.00;;;;;;;13.72;71.67;98875.97;5115527;28;20198;-72
2023/03/26 03:26:49;;;;;;;1.60;1.50;;;;;;;13.67;71.46;98878.50;5115336;28;20225;-75
2023/03/26 03:29:16;;;;;;;1.57;1.47;;;;;;;13.60;70.95;98883.13;5115459;28;20218;-74
2023/03/26 03:31:42;;;;;;;2.23;1.33;;;;;;;13.52;71.31;98875.47;5115432;28;20190;-75
2023/03/26 03:34:09;;;;;;;1.30;1.30;;;;;;;13.51;70.96;98889.84;5115151;28;20283;-75
2023/03/26 03:36:38;;;;;;;1.43;1.33;;;;;;;13.43;71.27;98892.84;5115100;28;20187;-75
2023/03/26 03:39:05;;;;;;;1.43;1.33;;;;;;;13.47;71.10;98893.19;5115429;28;20596;-74
2023/03/26 03:41:31;;;;;;;1.27;1.27;;;;;;;13.39;70.88;98898.88;5112091;28;20660;-74
2023/03/26 03:44:00;;;;;;;4.00;1.20;;;;;;;13.47;71.25;98902.03;5114875;28;20267;-74
2023/03/26 03:46:27;;;;;;;1.60;1.50;;;;;;;13.39;71.13;98920.22;5114800;28;20289;-74
2023/03/26 03:48:53;;;;;;;0.93;0.93;;;;;;;13.30;70.95;98918.91;5114436;28;20243;-76
2023/03/26 03:51:20;;;;;;;1.33;1.27;;;;;;;13.25;71.00;98919.59;5114369;28;20679;-76
2023/03/26 03:53:49;;;;;;;1.90;1.40;;;;;;;13.19;71.24;98923.16;5114588;28;20216;-73
2023/03/26 03:56:17;;;;;;;1.53;1.43;;;;;;;13.12;71.39;98919.78;5114722;28;20619;-76
2023/03/26 03:58:46;;;;;;;1.13;1.13;;;;;;;13.08;71.98;98923.13;5114555;28;20203;-75
2023/03/26 04:01:14;;;;;;;1.73;1.63;;;;;;;13.03;72.38;98923.00;5114486;28;20194;-76
2023/03/26 04:03:40;;;;;;;1.80;1.70;;;;;;;12.95;72.06;98932.06;5114240;28;20187;-75
2023/03/26 04:06:09;;;;;;;1.30;1.30;;;;;;;12.84;72.75;98932.84;5114310;28;20214;-76
2023/03/26 04:08:36;;;;;;;2.30;1.30;;;;;;;12.95;72.08;98926.72;5114069;28;20187;-76
2023/03/26 04:11:05;;;;;;;1.37;1.30;;;;;;;12.99;72.15;98925.28;5114007;28;20238;-76
2023/03/26 04:13:31;;;;;;;1.10;1.10;;;;;;;13.01;71.50;98923.22;5111477;28;20221;-76
2023/03/26 04:15:59;;;;;;;1.30;1.20;;;;;;;12.97;71.90;98927.38;5114177;28;20190;-75
2023/03/26 04:18:26;;;;;;;1.27;1.27;;;;;;;12.97;71.42;98937.16;5114171;28;20195;-74
2023/03/26 04:20:54;;;;;;;1.40;1.40;;;;;;;12.94;71.69;98933.09;5114066;28;20200;-75
2023/03/26 04:23:22;;;;;;;1.30;1.30;;;;;;;12.91;71.97;98941.53;5114182;28;20190;-75
2023/03/26 04:25:52;;;;;;;1.30;1.30;;;;;;;12.96;71.79;98949.72;5113192;28;20210;-75
2023/03/26 04:28:29;;;;;;;2.10;1.90;;;;;;;12.94;71.59;98959.75;5114069;28;20194;-73
2023/03/26 04:31:00;;;;;;;1.40;1.17;;;;;;;12.86;72.49;98948.59;5111866;28;20183;-74
2023/03/26 04:33:29;;;;;;;1.20;1.20;;;;;;;13.00;71.88;98956.25;5113546;28;20659;-74
2023/03/26 04:36:00;;;;;;;1.27;1.27;;;;;;;13.07;71.31;98967.63;5113474;28;20191;-73
2023/03/26 04:38:28;;;;;;;4.33;1.37;;;;;;;13.26;70.86;98971.91;5113511;28;20181;-74
2023/03/26 04:40:58;;;;;;;1.30;1.30;;;;;;;13.40;70.79;98965.31;5113334;28;20191;-73
2023/03/26 04:43:27;;;;;;;2.40;1.10;;;;;;;13.68;69.32;98978.88;5113906;28;20203;-73
2023/03/26 04:45:54;;;;;;;1.30;1.30;;;;;;;13.60;69.15;98967.72;5113487;28;20659;-74
2023/03/26 04:48:21;;;;;;;1.40;1.40;;;;;;;13.68;69.40;98992.22;5112307;28;20194;-74
2023/03/26 04:50:48;;;;;;;3.70;1.70;;;;;;;13.59;69.67;98998.09;5113478;28;20186;-74
2023/03/26 04:53:18;;;;;;;1.17;1.17;;;;;;;14.01;68.83;99000.53;5113225;28;20663;-75
2023/03/26 04:55:50;;;;;;;1.77;1.67;;;;;;;14.38;67.15;99002.00;5113070;28;20195;-75
2023/03/26 04:58:18;;;;;;;1.30;1.30;;;;;;;14.65;65.47;99019.22;5113543;28;20179;-74
2023/03/26 05:00:46;;;;;;;1.50;1.40;;;;;;;14.84;64.70;99022.56;5113359;28;20191;-73
2023/03/26 05:03:14;;;;;;;2.93;1.30;;;;;;;14.95;64.40;99016.38;5111050;28;20225;-74
2023/03/26 05:05:41;;;;;;;1.33;1.33;;;;;;;15.10;63.11;99025.53;5112926;28;20211;-73
2023/03/26 05:08:07;;;;;;;1.60;1.30;;;;;;;15.28;62.69;99033.38;5113230;28;20244;-73
2023/03/26 05:10:34;;;;;;;1.33;1.33;;;;;;;15.44;62.54;99046.06;5112855;28;20659;-74
2023/03/26 05:13:01;;;;;;;1.90;1.40;;;;;;;15.52;62.14;99045.69;5112892;28;20187;-72
2023/03/26 05:15:28;;;;;;;1.63;1.53;;;;;;;15.72;60.95;99050.59;5113010;28;20214;-73
2023/03/26 05:17:56;;;;;;;1.40;1.40;;;;;;;15.90;60.45;99043.16;5112833;28;20647;-73
2023/03/26 05:20:29;;;;;;;1.73;1.10;;;;;;;16.09;60.36;99041.09;5112729;28;20244;-74
2023/03/26 05:22:56;;;;;;;1.30;1.30;;;;;;;16.31;59.95;99041.19;5110803;28;20678;-74
2023/03/26 05:25:23;;;;;;;1.40;1.30;;;;;;;16.31;59.56;99050.06;5112411;28;20243;-73
2023/03/26 05:27:50;;;;;;;1.47;1.40;;;;;;;16.45;59.25;99053.25;5109874;28;20179;-72
2023/03/26 05:30:20;;;;;;;1.70;1.57;;;;;;;16.44;59.59;99044.41;5112827;28;20548;-74
2023/03/26 05:32:48;;;;;;;1.40;1.40;;;;;;;16.49;59.16;99051.72;5112917;28;20236;-73
2023/03/26 05:35:17;;;;;;;1.73;1.67;;;;;;;16.58;58.82;99055.59;5112805;28;20771;-73
2023/03/26 05:37:45;;;;;;;1.33;1.23;;;;;;;16.82;59.15;99057.03;5112774;28;20667;-77
2023/03/26 05:40:13;;;;;;;1.10;1.10;;;;;;;16.99;59.11;99061.28;5112814;28;20237;-76
2023/03/26 05:42:41;;;;;;;1.77;1.40;;;;;;;17.01;59.02;99066.41;5111978;28;20197;-78
2023/03/26 05:45:10;;;;;;;1.40;1.30;;;;;;;17.36;58.40;99074.94;5113127;28;20230;-77
2023/03/26 05:47:37;;;;;;;1.37;1.37;;;;;;;17.72;57.13;99068.97;5112837;28;20274;-78
2023/03/26 05:50:05;;;;;;;1.40;1.37;;;;;;;17.97;57.66;99066.56;5112538;28;20258;-77
2023/03/26 05:52:33;;;;;;;1.50;1.50;;;;;;;17.73;57.46;99062.53;5112520;28;20252;-67
2023/03/26 05:55:00;;;;;;;1.93;1.47;;;;;;;17.92;56.74;99075.38;5112764;28;20222;-76
2023/03/26 05:57:29;;;;;;;1.60;1.30;;;;;;;18.09;56.32;99083.34;5112877;28;20251;-75
2023/03/26 05:59:55;;;;;;;1.83;1.33;;;;;;;18.38;59.18;99082.03;5112393;28;20616;-74
2023/03/26 06:02:22;;;;;;;1.43;1.33;;;;;;;18.84;55.41;99089.38;5096081;28;20191;-74
2023/03/26 06:04:49;;;;;;;1.63;1.53;;;;;;;19.07;56.15;99094.38;5091603;28;20282;-69
2023/03/26 06:07:16;;;;;;;3.30;1.43;;;;;;;19.20;53.35;99110.84;5090145;28;20203;-71
2023/03/26 06:09:45;;;;;;;1.20;1.20;;;;;;;19.35;51.96;99112.84;5088733;28;20195;-77
2023/03/26 06:12:13;;;;;;;1.17;1.17;;;;;;;19.48;52.95;99112.41;5091484;28;20211;-72
2023/03/26 06:14:41;;;;;;;1.77;1.40;;;;;;;19.24;52.91;99111.19;5091261;28;20220;-71
2023/03/26 06:17:08;;;;;;;2.33;1.67;;;;;;;19.45;51.70;99131.78;5092089;28;20275;-71
2023/03/26 06:19:36;;;;;;;2.60;1.83;;;;;;;19.40;52.77;99116.38;5091825;28;20282;-72
2023/03/26 06:22:03;;;;;;;3.13;2.30;;;;;;;19.52;52.23;99118.91;5091263;28;20645;-79
2023/03/26 06:24:30;;;;;;;1.57;1.50;;;;;;;19.07;52.91;99122.09;5092219;28;20231;-75
2023/03/26 06:26:58;;;;;;;1.23;1.23;;;;;;;19.25;51.32;99123.59;5111415;28;20222;-73
2023/03/26 06:29:25;;;;;;;1.60;1.40;;;;;;;18.99;52.20;99121.78;5111598;28;20682;-73
2023/03/26 06:31:52;;;;;;;1.97;1.87;;;;;;;18.71;52.83;99108.66;5111425;28;20576;-74
2023/03/26 06:34:19;;;;;;;4.33;2.83;;;;;;;18.90;53.16;99117.94;5111995;28;20303;-79
2023/03/26 06:36:47;;;;;;;2.30;1.70;;;;;;;18.97;52.95;99102.38;5111621;28;20764;-73
2023/03/26 06:39:14;;;;;;;3.07;1.93;;;;;;;18.80;50.67;99112.50;5112116;28;20222;-73
2023/03/26 06:41:41;;;;;;;1.73;1.63;;;;;;;18.69;51.58;99103.53;5111656;28;20630;-75
2023/03/26 06:44:10;;;;;;;2.13;1.80;;;;;;;18.99;50.91;99097.56;5112082;28;20200;-74
2023/03/26 06:46:37;;;;;;;3.40;1.40;;;;;;;19.55;46.04;99107.56;5112005;28;20248;-74
2023/03/26 06:49:03;;;;;;;2.10;1.50;;;;;;;19.88;44.53;99112.53;5111716;28;20740;-74
2023/03/26 06:51:30;;;;;;;1.50;1.40;;;;;;;19.72;43.90;99097.38;5111738;28;20630;-73
2023/03/26 06:53:57;;;;;;;6.83;5.70;;;;;;;19.50;45.83;99094.91;5113646;28;20195;-75
2023/03/26 06:56:24;;;;;;;5.70;5.10;;;;;;;19.78;46.31;99091.78;5116078;28;20209;-78
2023/03/26 06:58:50;;;;;;;4.33;4.03;;;;;;;19.81;45.84;99088.53;5116009;28;20259;-74
2023/03/26 07:01:18;;;;;;;3.80;3.27;;;;;;;19.84;47.78;99079.94;5115747;28;20195;-74
2023/03/26 07:03:45;;;;;;;3.10;2.00;;;;;;;20.08;45.64;99091.03;5115521;28;20246;-77
2023/03/26 07:06:12;;;;;;;2.57;2.37;;;;;;;19.61;46.77;99091.16;5115542;28;20191;-88
2023/03/26 07:08:39;;;;;;;3.13;2.37;;;;;;;19.35;47.54;99091.31;5115210;28;20190;-85
2023/03/26 07:11:06;;;;;;;6.17;5.67;;;;;;;19.43;47.77;99098.88;5115594;28;20223;-76
2023/03/26 07:13:33;;;;;;;3.50;3.30;;;;;;;19.91;49.80;99090.44;5113086;28;20612;-83
2023/03/26 07:15:59;;;;;;;6.10;2.07;;;;;;;19.81;44.85;99109.31;5111509;28;20219;-77
2023/03/26 07:18:27;;;;;;;1.80;1.70;;;;;;;19.74;43.66;99104.16;5114542;28;20198;-72
2023/03/26 07:20:54;;;;;;;1.70;1.60;;;;;;;19.36;44.16;99103.72;5110620;28;20214;-81
2023/03/26 07:23:22;;;;;;;1.70;1.60;;;;;;;19.34;45.49;99111.25;5105629;28;20621;-69
2023/03/26 07:25:49;;;;;;;1.70;1.60;;;;;;;19.51;44.63;99111.84;5114574;28;20688;-68
2023/03/26 07:28:24;;;;;;;1.60;1.50;;;;;;;19.47;44.02;99108.91;5114854;28;20221;-68
2023/03/26 07:31:00;;;;;;;3.07;1.30;;;;;;;19.56;42.86;99114.59;5114506;28;20651;-69
2023/03/26 07:33:37;;;;;;;3.27;1.50;;;;;;;19.77;42.31;99110.91;5111558;28;20237;-69
2023/03/26 07:36:17;;;;;;;2.50;1.10;;;;;;;20.12;42.03;99103.75;5112406;28;20223;-69
2023/03/26 07:39:09;;;;;;;1.93;1.50;;;;;;;20.41;40.79;99093.25;5114481;28;20190;-69
2023/03/26 07:41:45;;;;;;;2.23;2.13;;;;;;;20.84;39.77;99108.09;5102037;28;20182;-69
2023/03/26 07:44:31;;;;;;;3.07;1.20;;;;;;;21.01;39.01;99095.16;5114062;28;20240;-69
2023/03/26 07:47:03;;;;;;;1.70;1.57;;;;;;;20.64;39.22;99084.63;5113687;28;20203;-68
2023/03/26 07:49:32;;;;;;;5.00;1.60;;;;;;;20.80;42.30;99067.34;5114539;28;20179;-69
2023/03/26 07:52:00;;;;;;;1.30;1.30;;;;;;;20.81;38.30;99082.47;5114969;28;20209;-69
2023/03/26 07:54:27;;;;;;;2.07;1.60;;;;;;;21.00;38.82;99088.13;5114375;28;20271;-70
2023/03/26 07:56:59;;;;;;;1.70;1.60;;;;;;;20.98;38.72;99074.91;5114844;28;20194;-69
2023/03/26 07:59:34;;;;;;;1.93;1.43;;;;;;;21.00;39.36;99083.56;5114590;28;20187;-69
2023/03/26 08:02:29;;;;;;;1.80;1.70;;;;;;;21.33;38.19;99082.94;5114970;28;20193;-69
2023/03/26 08:05:18;;;;;;;1.37;1.27;;;;;;;21.39;35.66;99075.63;5113780;28;20654;-70
2023/03/26 08:08:01;;;;;;;13.30;2.33;;;;;;;20.79;35.87;99070.31;5114045;28;20215;-70
2023/03/26 08:10:38;;;;;;;2.93;1.73;;;;;;;20.45;36.92;99059.25;5114520;28;20269;-69
2023/03/26 08:13:19;;;;;;;2.33;1.27;;;;;;;20.44;36.99;99052.25;5114447;28;20194;-69
2023/03/26 08:15:53;;;;;;;3.10;1.40;;;;;;;20.51;36.73;99050.91;5114624;28;20219;-68
2023/03/26 08:18:34;;;;;;;1.37;1.37;;;;;;;21.00;36.15;99061.13;5113422;28;20294;-68
2023/03/26 08:21:08;;;;;;;1.20;1.20;;;;;;;21.49;36.25;99052.06;5114549;28;20182;-69
2023/03/26 08:23:45;;;;;;;2.77;1.90;;;;;;;21.14;35.63;99043.28;5114272;28;20183;-69
2023/03/26 08:26:19;;;;;;;1.70;1.70;;;;;;;20.95;36.47;99037.63;5113935;28;20306;-69
2023/03/26 08:28:56;;;;;;;4.83;1.40;;;;;;;21.04;36.51;99036.00;5114483;28;20187;-69
2023/03/26 08:31:31;;;;;;;20.40;2.30;;;;;;;20.82;36.89;99030.06;5114062;28;20722;-69
2023/03/26 08:33:58;;;;;;;6.93;2.10;;;;;;;20.44;37.93;99025.28;5113969;28;20179;-69
2023/03/26 08:36:26;;;;;;;1.90;1.80;;;;;;;20.51;37.67;99031.22;5113355;28;20269;-69
2023/03/26 08:38:53;;;;;;;3.50;1.50;;;;;;;20.69;37.38;99027.16;5114156;28;20278;-69
2023/03/26 08:41:57;;;;;;;5.90;1.53;;;;;;;20.68;35.82;99031.72;5113776;28;20195;-69
2023/03/26 08:45:07;;;;;;;1.73;1.20;;;;;;;20.84;35.30;99046.00;5093385;28;20187;-69
2023/03/26 08:48:02;;;;;;;1.73;1.30;;;;;;;21.08;34.13;99039.78;5093314;28;20616;-68
2023/03/26 08:51:09;;;;;;;3.90;1.50;;;;;;;21.28;33.94;99044.31;5093157;28;20180;-68
2023/03/26 08:54:14;;;;;;;1.30;1.20;;;;;;;21.28;33.38;99037.00;5108319;28;20190;-69
2023/03/26 08:56:53;;;;;;;2.03;1.83;;;;;;;21.17;34.78;99040.00;5113596;28;20221;-68
2023/03/26 08:59:55;;;;;;;1.77;1.70;;;;;;;21.22;34.16;99032.69;5113578;28;20182;-69
2023/03/26 09:02:59;;;;;;;2.70;2.00;;;;;;;21.34;34.43;99040.47;5113068;28;20179;-69
2023/03/26 09:05:48;;;;;;;4.30;1.60;;;;;;;21.16;33.09;99035.69;5113415;28;20191;-69
2023/03/26 09:08:39;;;;;;;1.27;1.20;;;;;;;21.96;32.44;99028.03;5113187;28;20183;-69
2023/03/26 09:11:40;;;;;;;1.80;1.23;;;;;;;22.36;30.16;99038.56;5112957;28;20655;-69
2023/03/26 09:14:34;;;;;;;2.60;1.30;;;;;;;21.77;30.22;99042.47;5112866;28;20186;-69
2023/03/26 09:17:33;;;;;;;1.20;1.10;;;;;;;21.53;30.60;99036.91;5112300;28;20194;-70
2023/03/26 09:20:28;;;;;;;2.70;1.20;;;;;;;21.97;30.37;99024.22;5105348;28;20209;-70
2023/03/26 09:23:30;;;;;;;2.63;1.30;;;;;;;22.57;29.34;99028.38;5108820;28;20244;-68
2023/03/26 09:26:10;;;;;;;3.37;1.40;;;;;;;22.57;28.67;99014.84;5099566;28;20225;-71
2023/03/26 09:29:16;;;;;;;1.93;1.20;;;;;;;22.82;29.16;99014.63;5111434;28;20259;-68
2023/03/26 09:32:33;;;;;;;2.43;1.50;;;;;;;22.41;30.38;99007.94;5112761;28;20666;-69
2023/03/26 09:35:12;;;;;;;2.57;1.30;;;;;;;22.64;29.27;98999.06;5094742;28;20640;-70
2023/03/26 09:37:53;;;;;;;1.50;1.40;;;;;;;22.05;29.58;99010.09;5112133;28;20182;-69
2023/03/26 09:40:24;;;;;;;2.23;1.30;;;;;;;21.49;30.33;98989.91;5112694;28;20187;-68
2023/03/26 09:42:57;;;;;;;1.70;1.50;;;;;;;21.82;30.73;98989.19;5112565;28;20248;-69
2023/03/26 09:45:45;;;;;;;3.43;1.37;;;;;;;21.67;29.09;98991.94;5112524;28;20274;-69
2023/03/26 09:48:28;;;;;;;2.63;1.13;;;;;;;21.77;29.66;98997.34;5113011;28;20314;-71
2023/03/26 09:51:12;;;;;;;1.47;1.23;;;;;;;21.61;28.74;99000.38;5112519;28;20194;-71
2023/03/26 09:54:05;;;;;;;1.30;1.20;;;;;;;21.71;28.93;99003.84;5112811;28;20179;-70
2023/03/26 09:56:41;;;;;;;1.67;1.10;;;;;;;21.21;29.43;98992.44;5112585;28;20225;-70
2023/03/26 09:59:44;;;;;;;3.40;1.37;;;;;;;21.35;29.17;98988.88;5112332;28;20655;-70
2023/03/26 10:02:35;;;;;;;1.67;1.57;;;;;;;21.62;30.92;98983.88;5111381;28;20248;-71
2023/03/26 10:05:20;;;;;;;1.30;1.30;;;;;;;21.64;29.15;98970.88;5111872;28;20219;-70
2023/03/26 10:08:04;;;;;;;38.13;3.97;;;;;;;22.12;29.61;98972.72;5112606;28;20187;-68
2023/03/26 10:10:40;;;;;;;6.23;1.50;;;;;;;22.18;30.02;98966.19;5112121;28;20659;-70
2023/03/26 10:13:19;;;;;;;3.70;1.63;;;;;;;21.83;28.38;98949.41;5112007;28;20182;-70
2023/03/26 10:15:59;;;;;;;3.53;1.77;;;;;;;22.26;28.51;98949.31;5112340;28;20259;-71
2023/03/26 10:18:37;;;;;;;1.63;1.40;;;;;;;22.03;27.29;98968.19;5112353;28;20186;-71
2023/03/26 10:21:07;;;;;;;2.93;1.67;;;;;;;22.18;29.03;98959.97;5111849;28;20239;-69
2023/03/26 10:24:10;;;;;;;17.90;2.30;;;;;;;22.29;28.16;98950.69;5112408;28;20190;-70
2023/03/26 10:26:50;;;;;;;2.13;1.30;;;;;;;22.27;26.94;98952.84;5112058;28;20226;-71
2023/03/26 10:29:39;;;;;;;3.40;1.53;;;;;;;22.33;27.75;98951.72;5111718;28;20186;-70
2023/03/26 10:32:19;;;;;;;4.73;1.87;;;;;;;22.63;27.17;98944.13;5108017;28;20194;-71
2023/03/26 10:35:03;;;;;;;1.00;1.00;;;;;;;22.57;27.71;98931.72;5111908;28;20186;-71
2023/03/26 10:37:41;;;;;;;0.90;0.90;;;;;;;22.68;26.41;98914.28;5111799;28;20273;-70
2023/03/26 10:40:24;;;;;;;1.33;1.30;;;;;;;22.94;26.63;98929.13;5111858;28;20182;-70
2023/03/26 10:43:11;;;;;;;1.40;1.30;;;;;;;23.16;25.52;98923.97;5111735;28;20590;-71
2023/03/26 10:45:57;;;;;;;1.83;1.30;;;;;;;23.20;25.24;98916.91;5091466;28;20622;-71
2023/03/26 10:48:51;;;;;;;1.50;1.40;;;;;;;23.12;25.11;98916.72;5091491;28;20640;-71
2023/03/26 10:51:47;;;;;;;4.20;1.60;;;;;;;22.65;25.97;98912.16;5093887;28;20188;-70
2023/03/26 10:54:26;;;;;;;1.77;1.40;;;;;;;22.43;26.19;98909.13;5111866;28;20651;-70
2023/03/26 10:56:55;;;;;;;1.20;1.10;;;;;;;22.11;26.71;98922.41;5111789;28;20259;-70
2023/03/26 10:59:22;;;;;;;1.73;1.43;;;;;;;22.09;27.39;98912.97;5112146;28;20190;-70
2023/03/26 11:01:55;;;;;;;3.47;2.13;;;;;;;21.88;26.89;98917.75;5111710;28;20243;-71
2023/03/26 11:04:32;;;;;;;3.00;1.93;;;;;;;22.03;26.82;98917.63;5112188;28;20251;-71
2023/03/26 11:07:13;;;;;;;1.30;1.17;;;;;;;21.89;27.23;98913.94;5112129;28;20258;-70
2023/03/26 11:09:47;;;;;;;2.70;1.33;;;;;;;22.17;26.90;98910.44;5112170;28;20195;-70
2023/03/26 11:12:22;;;;;;;3.80;3.47;;;;;;;22.00;27.16;98904.66;5111579;28;20190;-70
2023/03/26 11:14:56;;;;;;;2.60;1.23;;;;;;;22.24;27.15;98905.50;5111546;28;20182;-70
2023/03/26 11:17:33;;;;;;;3.27;1.80;;;;;;;22.24;25.97;98896.56;5111534;28;20218;-71
2023/03/26 11:20:07;;;;;;;1.27;1.27;;;;;;;22.17;26.30;98894.22;5111958;28;20187;-70
2023/03/26 11:22:47;;;;;;;1.37;1.37;;;;;;;21.99;26.38;98894.94;5111458;28;20248;-71
2023/03/26 11:25:37;;;;;;;9.67;1.90;;;;;;;22.16;26.14;98892.59;5112064;28;20186;-71
2023/03/26 11:28:20;;;;;;;1.00;1.00;;;;;;;22.36;25.29;98895.13;5102613;28;20186;-71
2023/03/26 11:30:53;;;;;;;1.17;1.07;;;;;;;22.25;25.13;98879.28;5112012;28;20259;-73
2023/03/26 11:33:24;;;;;;;1.80;1.10;;;;;;;22.53;25.46;98887.38;5111121;28;20562;-72
2023/03/26 11:35:55;;;;;;;1.50;1.40;;;;;;;22.49;25.79;98864.69;5111678;28;20275;-71
2023/03/26 11:38:28;;;;;;;7.50;1.93;;;;;;;22.65;26.70;98868.81;5111186;28;20191;-71
2023/03/26 11:40:57;;;;;;;15.30;2.10;;;;;;;22.87;24.13;98871.78;5112694;28;20183;-71
2023/03/26 11:43:28;;;;;;;7.77;1.43;;;;;;;22.99;24.32;98863.25;5113630;28;20191;-71
2023/03/26 11:45:55;;;;;;;1.30;1.20;;;;;;;23.19;24.86;98861.06;5114843;28;20635;-72
2023/03/26 11:48:30;;;;;;;1.40;1.40;;;;;;;23.03;25.01;98862.38;5114819;28;20615;-71
2023/03/26 11:51:03;;;;;;;2.10;1.20;;;;;;;22.92;27.21;98857.38;5115288;28;20187;-71
2023/03/26 11:53:37;;;;;;;0.97;0.97;;;;;;;23.10;23.83;98854.69;5114961;28;20244;-71
2023/03/26 11:56:08;;;;;;;1.87;1.50;;;;;;;23.13;24.34;98854.13;5114699;28;20241;-71
2023/03/26 11:58:42;;;;;;;1.10;0.80;;;;;;;22.51;23.76;98846.25;5115174;28;20183;-71